Главная страница
METAR-TAF:

METAR-TAF

Аэропорты :

Aklavik, Северо-Западные Территории, Канада

широта: 68-13N, долгота: 135-00W, высота над уровнем моря: 7 м

Текущие метеонаблюдения

Эта сводка был подготовлена 4 часа и 25 минут назад, в 00:00 UTC
Ветер 2 Узел от западный
Температура -9°C
Влажность 79%
Давление 1004 hPa
Видимость: 24.1 км
небольшая облачность на высоте 4000 фута
Отдельные облака на высоте 10000 фута
Рассеянная облачность на высоте 14000 фута

METAR: CYKD 230000Z 26002KT 15SM FEW040 SCT100 BKN140 M09/M12 A2964 RMK SC1AC2AC2 TR/SNW CVR/MEDIUM PACK/LAST STFD OBS/NXT 231400Z SLP040

Время: 21:25 (04:25 UTC)


TAF: отсутствует

Метеонаблюдения и прогнозы для более 4000 аэропортов (сводки METAR и TAF).

Имеющиеся станции представлены на карте желтыми и красными точками.

Чтобы увидеть название станции, наведите на нее мышь.

Затем щелкните, чтобы увидеть метеонаблюдения и метеопрогнозы.

Управление картой: чтобы увеличить масштаб, щелкните зеленые кнопки с черным крестиком; чтобы уменьшить масштаб, щелкните зеленую кнопку с тире; для просмотра соседних карт щелкайте зеленые стрелки.


METAR-TAF: